Time,TemperatureF,DewpointF,PressureIn,WindDirection,WindDirectionDegrees,WindSpeedMPH,WindSpeedGustMPH,Humidity,HourlyPrecipIn,Conditions,Clouds,dailyrainin,SolarRadiationWatts/m^2,SoftwareType,DateUTC
2013-10-10 00:03:00,61.0,60.0,-100.00,SE,124,0.0,3.0,96,0.00,,,0.00,0.000000,,2013-10-10 05:03:00,
2013-10-10 00:43:00,59.0,59.0,-100.00,ENE,62,0.0,2.0,99,0.00,,,0.00,0.000000,,2013-10-10 05:43:00,
2013-10-10 00:53:00,59.0,59.0,-100.00,ENE,62,0.0,2.0,99,0.00,,,0.00,0.000000,,2013-10-10 05:53:00,
2013-10-10 01:03:00,59.0,59.0,-100.00,ENE,62,0.0,2.0,99,0.00,,,0.00,0.000000,,2013-10-10 06:03:00,
2013-10-10 01:43:00,57.0,57.0,-100.00,NNE,30,0.0,2.0,100,0.00,,,0.00,0.000000,,2013-10-10 06:43:00,
2013-10-10 01:53:00,57.0,57.0,-100.00,NNE,30,0.0,2.0,100,0.00,,,0.00,0.000000,,2013-10-10 06:53:00,
2013-10-10 02:02:00,57.0,57.0,-100.00,NNE,30,0.0,2.0,100,0.00,,,0.00,0.000000,,2013-10-10 07:02:00,
2013-10-10 02:42:00,59.0,59.0,-100.00,ESE,108,1.0,3.0,100,0.00,,,0.00,0.000000,,2013-10-10 07:42:00,
2013-10-10 02:52:00,59.0,59.0,-100.00,ESE,108,1.0,3.0,100,0.00,,,0.00,0.000000,,2013-10-10 07:52:00,
2013-10-10 03:02:00,59.0,59.0,-100.00,ESE,108,1.0,3.0,100,0.00,,,0.00,0.000000,,2013-10-10 08:02:00,
2013-10-10 03:43:00,58.0,58.0,-100.00,SE,128,0.0,3.0,100,0.00,,,0.00,0.000000,,2013-10-10 08:43:00,
2013-10-10 03:52:00,58.0,58.0,-100.00,SE,128,0.0,3.0,100,0.00,,,0.00,0.000000,,2013-10-10 08:52:00,
2013-10-10 04:02:00,58.0,58.0,-100.00,SE,128,0.0,3.0,100,0.00,,,0.00,0.000000,,2013-10-10 09:02:00,
2013-10-10 04:43:00,56.0,56.0,-100.00,NW,304,0.0,2.0,100,0.00,,,0.00,0.000000,,2013-10-10 09:43:00,
2013-10-10 04:53:00,56.0,56.0,-100.00,NW,304,0.0,2.0,100,0.00,,,0.00,0.000000,,2013-10-10 09:53:00,
2013-10-10 05:03:00,56.0,56.0,-100.00,NW,304,0.0,2.0,100,0.00,,,0.00,0.000000,,2013-10-10 10:03:00,
2013-10-10 05:43:00,57.0,57.0,-100.00,ENE,67,0.0,0.0,100,0.00,,,0.00,0.000000,,2013-10-10 10:43:00,
2013-10-10 05:53:00,57.0,57.0,-100.00,ENE,67,0.0,0.0,100,0.00,,,0.00,0.000000,,2013-10-10 10:53:00,
2013-10-10 06:03:00,57.0,57.0,-100.00,ENE,67,0.0,0.0,100,0.00,,,0.00,0.000000,,2013-10-10 11:03:00,
2013-10-10 09:42:00,63.0,63.0,-100.00,WNW,287,0.0,2.0,99,-99.99,,,0.00,114.000000,,2013-10-10 14:42:00,
2013-10-10 09:52:00,63.0,63.0,-100.00,WNW,287,0.0,2.0,99,-99.99,,,0.00,114.000000,,2013-10-10 14:52:00,
2013-10-10 10:02:00,63.0,63.0,-100.00,WNW,287,0.0,2.0,99,-99.99,,,0.00,114.000000,,2013-10-10 15:02:00,
2013-10-10 10:43:00,71.0,65.0,-100.00,NW,306,2.0,5.0,82,0.00,,,0.00,395.000000,,2013-10-10 15:43:00,
2013-10-10 10:54:00,71.0,65.0,-100.00,NW,306,2.0,5.0,82,0.00,,,0.00,395.000000,,2013-10-10 15:54:00,
2013-10-10 11:03:00,71.0,65.0,-100.00,NW,306,2.0,5.0,82,0.00,,,0.00,395.000000,,2013-10-10 16:03:00,
2013-10-10 11:42:00,72.0,64.0,-100.00,WSW,245,3.0,6.0,77,0.00,,,0.00,546.000000,,2013-10-10 16:42:00,
2013-10-10 11:53:00,72.0,64.0,-100.00,WSW,245,3.0,6.0,77,0.00,,,0.00,546.000000,,2013-10-10 16:53:00,
2013-10-10 12:02:00,72.0,64.0,-100.00,WSW,245,3.0,6.0,77,0.00,,,0.00,546.000000,,2013-10-10 17:02:00,
2013-10-10 12:42:00,74.0,64.0,-100.00,West,259,7.0,10.0,72,0.00,,,0.00,467.000000,,2013-10-10 17:42:00,
2013-10-10 12:53:00,74.0,64.0,-100.00,West,259,7.0,10.0,72,0.00,,,0.00,467.000000,,2013-10-10 17:53:00,
2013-10-10 13:02:00,74.0,64.0,-100.00,West,259,7.0,10.0,72,0.00,,,0.00,467.000000,,2013-10-10 18:02:00,
2013-10-10 13:42:00,77.0,63.0,-100.00,WSW,248,3.0,7.0,63,0.00,,,0.00,580.000000,,2013-10-10 18:42:00,
2013-10-10 13:52:00,77.0,63.0,-100.00,WSW,248,3.0,7.0,63,0.00,,,0.00,580.000000,,2013-10-10 18:52:00,
2013-10-10 14:01:00,77.0,63.0,-100.00,WSW,248,3.0,7.0,63,0.00,,,0.00,580.000000,,2013-10-10 19:01:00,
2013-10-10 14:42:00,78.0,62.0,-100.00,WSW,247,4.0,10.0,59,0.00,,,0.00,563.000000,,2013-10-10 19:42:00,
2013-10-10 14:53:00,78.0,62.0,-100.00,WSW,247,4.0,10.0,59,0.00,,,0.00,563.000000,,2013-10-10 19:53:00,
2013-10-10 15:02:00,78.0,62.0,-100.00,WSW,247,4.0,10.0,59,0.00,,,0.00,563.000000,,2013-10-10 20:02:00,
2013-10-10 15:42:00,76.0,63.0,-100.00,SE,132,1.0,8.0,64,0.00,,,0.00,524.000000,,2013-10-10 20:42:00,
2013-10-10 15:52:00,76.0,63.0,-100.00,SE,132,1.0,8.0,64,0.00,,,0.00,524.000000,,2013-10-10 20:52:00,
2013-10-10 16:03:00,76.0,63.0,-100.00,SE,132,1.0,8.0,64,0.00,,,0.00,524.000000,,2013-10-10 21:03:00,
2013-10-10 16:44:00,76.0,62.0,-100.00,SE,138,0.0,6.0,62,0.00,,,0.00,367.000000,,2013-10-10 21:44:00,
2013-10-10 16:54:00,76.0,62.0,-100.00,SE,138,0.0,6.0,62,0.00,,,0.00,367.000000,,2013-10-10 21:54:00,
2013-10-10 17:04:00,76.0,62.0,-100.00,SE,138,0.0,6.0,62,0.00,,,0.00,367.000000,,2013-10-10 22:04:00,
2013-10-10 17:43:00,78.0,60.0,-100.00,SW,219,2.0,5.0,54,0.00,,,0.00,328.000000,,2013-10-10 22:43:00,
2013-10-10 17:53:00,78.0,60.0,-100.00,SW,219,2.0,5.0,54,0.00,,,0.00,328.000000,,2013-10-10 22:53:00,
2013-10-10 18:03:00,78.0,60.0,-100.00,SW,219,2.0,5.0,54,0.00,,,0.00,328.000000,,2013-10-10 23:03:00,
2013-10-10 18:43:00,75.0,62.0,-100.00,WSW,244,0.0,3.0,65,0.00,,,0.00,151.000000,,2013-10-10 23:43:00,
2013-10-10 18:53:00,75.0,62.0,-100.00,WSW,244,0.0,3.0,65,0.00,,,0.00,151.000000,,2013-10-10 23:53:00,
2013-10-10 19:02:00,75.0,62.0,-100.00,WSW,244,0.0,3.0,65,0.00,,,0.00,151.000000,,2013-10-11 00:02:00,
2013-10-10 19:42:00,67.0,63.0,-100.00,SE,142,0.0,1.0,88,0.00,,,0.00,7.000000,,2013-10-11 00:42:00,
2013-10-10 19:52:00,67.0,63.0,-100.00,SE,142,0.0,1.0,88,0.00,,,0.00,7.000000,,2013-10-11 00:52:00,
2013-10-10 20:01:00,67.0,63.0,-100.00,SE,142,0.0,1.0,88,0.00,,,0.00,7.000000,,2013-10-11 01:01:00,
2013-10-10 20:42:00,64.0,63.0,-100.00,North,3,0.0,0.0,97,0.00,,,0.00,0.000000,,2013-10-11 01:42:00,
2013-10-10 20:52:00,64.0,63.0,-100.00,North,3,0.0,0.0,97,0.00,,,0.00,0.000000,,2013-10-11 01:52:00,
2013-10-10 21:02:00,64.0,63.0,-100.00,North,3,0.0,0.0,97,0.00,,,0.00,0.000000,,2013-10-11 02:02:00,
2013-10-10 21:42:00,63.0,63.0,-100.00,SE,133,0.0,2.0,99,0.00,,,0.00,0.000000,,2013-10-11 02:42:00,
2013-10-10 21:52:00,63.0,63.0,-100.00,SE,133,0.0,2.0,99,0.00,,,0.00,0.000000,,2013-10-11 02:52:00,
2013-10-10 22:02:00,63.0,63.0,-100.00,SE,133,0.0,2.0,99,0.00,,,0.00,0.000000,,2013-10-11 03:02:00,
2013-10-10 22:45:00,61.0,61.0,-100.00,ESE,121,0.0,2.0,100,0.00,,,0.00,0.000000,,2013-10-11 03:45:00,
2013-10-10 22:54:00,61.0,61.0,-100.00,ESE,121,0.0,2.0,100,0.00,,,0.00,0.000000,,2013-10-11 03:54:00,
2013-10-10 23:04:00,61.0,61.0,-100.00,ESE,121,0.0,2.0,100,0.00,,,0.00,0.000000,,2013-10-11 04:04:00,
2013-10-10 23:44:00,59.0,59.0,-100.00,North,6,0.0,0.0,100,0.00,,,0.00,0.000000,,2013-10-11 04:44:00,
2013-10-10 23:53:00,59.0,59.0,-100.00,North,6,0.0,0.0,100,0.00,,,0.00,0.000000,,2013-10-11 04:53:00,